NWK1677 YSOL-YPPH
Flight info
| Callsign | NWK1677 |
|---|---|
| Flight time | 1h 23m |
| Altitude | 38000 |
| Route | ENDOV DCT ISDOR Q9 AVPAL Q38 JULIM DCT PH |
| Aircraft | A320/M-SDE3FGHIRWY/LB1 |
Departure
| Time | 2026-04-14 10:03 |
|---|---|
| Airport | Solomon Airport (YSOL) |
Arrival
| Time | 2026-04-14 11:27 |
|---|---|
| Airport | Perth International Airport (YPPH) |
| Time | Latitude | Longitude | Altitude | Speed | Heading |
|---|---|---|---|---|---|
| 2026-04-14 09:43 | -22.25412 | 117.84941 | 2021 ft | 0 kts | 314° |
| 2026-04-14 10:00 | -22.25412 | 117.84938 | 2018 ft | 1 kts | 294° |
| 2026-04-14 10:00 | -22.25433 | 117.84925 | 2028 ft | 7 kts | 188° |
| 2026-04-14 10:00 | -22.25513 | 117.84921 | 2026 ft | 16 kts | 178° |
| 2026-04-14 10:00 | -22.25648 | 117.84938 | 2028 ft | 21 kts | 143° |
| 2026-04-14 10:01 | -22.25661 | 117.85083 | 2023 ft | 23 kts | 91° |
| 2026-04-14 10:01 | -22.25664 | 117.85275 | 2027 ft | 28 kts | 91° |
| 2026-04-14 10:01 | -22.25665 | 117.85504 | 2029 ft | 34 kts | 89° |
| 2026-04-14 10:01 | -22.25663 | 117.85773 | 2032 ft | 36 kts | 90° |
| 2026-04-14 10:02 | -22.25694 | 117.85999 | 2035 ft | 11 kts | 98° |
| 2026-04-14 10:02 | -22.25671 | 117.86000 | 2034 ft | 5 kts | 305° |
| 2026-04-14 10:02 | -22.25664 | 117.85870 | 2032 ft | 42 kts | 268° |
| 2026-04-14 10:02 | -22.25668 | 117.85306 | 2027 ft | 105 kts | 270° |
| 2026-04-14 10:03 | -22.25677 | 117.84336 | 2027 ft | 151 kts | 269° |
| 2026-04-14 10:03 | -22.25698 | 117.83096 | 2119 ft | 177 kts | 269° |
| 2026-04-14 10:03 | -22.25714 | 117.81712 | 2449 ft | 188 kts | 263° |
| 2026-04-14 10:03 | -22.26001 | 117.80382 | 3083 ft | 182 kts | 251° |
| 2026-04-14 10:04 | -22.26493 | 117.79149 | 3734 ft | 176 kts | 229° |
| 2026-04-14 10:04 | -22.27425 | 117.78253 | 4085 ft | 189 kts | 207° |
| 2026-04-14 10:04 | -22.28722 | 117.77752 | 4322 ft | 210 kts | 185° |
| 2026-04-14 10:04 | -22.30245 | 117.77810 | 4611 ft | 228 kts | 173° |
| 2026-04-14 10:05 | -22.31901 | 117.77986 | 5016 ft | 248 kts | 174° |
| 2026-04-14 10:05 | -22.33640 | 117.78154 | 5702 ft | 254 kts | 174° |
| 2026-04-14 10:05 | -22.35412 | 117.78316 | 6471 ft | 257 kts | 175° |
| 2026-04-14 10:05 | -22.37209 | 117.78477 | 7214 ft | 261 kts | 175° |
| 2026-04-14 10:06 | -22.39005 | 117.78637 | 7956 ft | 264 kts | 175° |
| 2026-04-14 10:06 | -22.40845 | 117.78802 | 8725 ft | 267 kts | 175° |
| 2026-04-14 10:06 | -22.42712 | 117.78969 | 9493 ft | 271 kts | 176° |
| 2026-04-14 10:06 | -22.44602 | 117.79139 | 10214 ft | 274 kts | 176° |
| 2026-04-14 10:07 | -22.46534 | 117.79311 | 10758 ft | 287 kts | 177° |
| 2026-04-14 10:07 | -22.48610 | 117.79494 | 11030 ft | 311 kts | 176° |
| 2026-04-14 10:07 | -22.50845 | 117.79692 | 11336 ft | 332 kts | 177° |
| 2026-04-14 10:07 | -22.53175 | 117.79900 | 11961 ft | 339 kts | 176° |
| 2026-04-14 10:08 | -22.55541 | 117.80112 | 12704 ft | 343 kts | 176° |
| 2026-04-14 10:08 | -22.57899 | 117.80324 | 13436 ft | 347 kts | 176° |
| 2026-04-14 10:08 | -22.60315 | 117.80544 | 14147 ft | 350 kts | 176° |
| 2026-04-14 10:08 | -22.62756 | 117.80766 | 14802 ft | 354 kts | 177° |
| 2026-04-14 10:09 | -22.65218 | 117.80993 | 15439 ft | 357 kts | 176° |
| 2026-04-14 10:09 | -22.67706 | 117.81221 | 16075 ft | 360 kts | 176° |
| 2026-04-14 10:09 | -22.70216 | 117.81450 | 16717 ft | 364 kts | 176° |
| 2026-04-14 10:09 | -22.72753 | 117.81681 | 17349 ft | 368 kts | 176° |
| 2026-04-14 10:10 | -22.75316 | 117.81913 | 17962 ft | 372 kts | 176° |
| 2026-04-14 10:10 | -22.77911 | 117.82145 | 18553 ft | 376 kts | 176° |
| 2026-04-14 10:10 | -22.80495 | 117.82377 | 19094 ft | 379 kts | 176° |
| 2026-04-14 10:10 | -22.83137 | 117.82614 | 19641 ft | 383 kts | 177° |
| 2026-04-14 10:11 | -22.85807 | 117.82852 | 20196 ft | 387 kts | 177° |
| 2026-04-14 10:11 | -22.88499 | 117.83093 | 20749 ft | 390 kts | 177° |
| 2026-04-14 10:11 | -22.91215 | 117.83337 | 21290 ft | 393 kts | 178° |
| 2026-04-14 10:11 | -22.93955 | 117.83585 | 21821 ft | 397 kts | 178° |
| 2026-04-14 10:12 | -22.96719 | 117.83838 | 22355 ft | 400 kts | 178° |
| 2026-04-14 10:12 | -22.99506 | 117.84094 | 22889 ft | 404 kts | 178° |
| 2026-04-14 10:12 | -23.02282 | 117.84350 | 23447 ft | 407 kts | 178° |
| 2026-04-14 10:12 | -23.05114 | 117.84609 | 23937 ft | 410 kts | 178° |
| 2026-04-14 10:13 | -23.07965 | 117.84869 | 24397 ft | 413 kts | 178° |
| 2026-04-14 10:13 | -23.10831 | 117.85128 | 24862 ft | 415 kts | 179° |
| 2026-04-14 10:13 | -23.13714 | 117.85390 | 25316 ft | 417 kts | 179° |
| 2026-04-14 10:13 | -23.16611 | 117.85654 | 25781 ft | 419 kts | 179° |
| 2026-04-14 10:14 | -23.19521 | 117.85918 | 26240 ft | 421 kts | 180° |
| 2026-04-14 10:14 | -23.22447 | 117.86184 | 26670 ft | 423 kts | 180° |
| 2026-04-14 10:14 | -23.25346 | 117.86450 | 27101 ft | 425 kts | 180° |
| 2026-04-14 10:14 | -23.28301 | 117.86719 | 27533 ft | 427 kts | 180° |
| 2026-04-14 10:15 | -23.31271 | 117.86987 | 27949 ft | 429 kts | 180° |
| 2026-04-14 10:15 | -23.34258 | 117.87256 | 28339 ft | 432 kts | 180° |
| 2026-04-14 10:15 | -23.37263 | 117.87526 | 28737 ft | 434 kts | 180° |
| 2026-04-14 10:15 | -23.40281 | 117.87800 | 29145 ft | 436 kts | 180° |
| 2026-04-14 10:16 | -23.43317 | 117.88080 | 29544 ft | 439 kts | 180° |
| 2026-04-14 10:16 | -23.46363 | 117.88365 | 29934 ft | 441 kts | 181° |
| 2026-04-14 10:16 | -23.49390 | 117.88646 | 30286 ft | 443 kts | 181° |
| 2026-04-14 10:16 | -23.52468 | 117.88930 | 30613 ft | 446 kts | 181° |
| 2026-04-14 10:17 | -23.55567 | 117.89211 | 30940 ft | 448 kts | 181° |
| 2026-04-14 10:17 | -23.58681 | 117.89494 | 31244 ft | 451 kts | 182° |
| 2026-04-14 10:17 | -23.61814 | 117.89779 | 31538 ft | 453 kts | 182° |
| 2026-04-14 10:17 | -23.64968 | 117.90067 | 31862 ft | 455 kts | 182° |
| 2026-04-14 10:18 | -23.71343 | 117.90653 | 32191 ft | 466 kts | 182° |
| 2026-04-14 10:18 | -23.74546 | 117.90948 | 32317 ft | 470 kts | 182° |
| 2026-04-14 10:18 | -23.77820 | 117.91250 | 32439 ft | 474 kts | 182° |
| 2026-04-14 10:19 | -23.81118 | 117.91554 | 32564 ft | 477 kts | 182° |
| 2026-04-14 10:19 | -23.84430 | 117.91861 | 32739 ft | 478 kts | 182° |
| 2026-04-14 10:19 | -23.87747 | 117.92169 | 32919 ft | 479 kts | 182° |
| 2026-04-14 10:19 | -23.91073 | 117.92475 | 33143 ft | 479 kts | 182° |
| 2026-04-14 10:20 | -23.94398 | 117.92779 | 33372 ft | 479 kts | 182° |
| 2026-04-14 10:20 | -23.97716 | 117.93083 | 33608 ft | 479 kts | 182° |
| 2026-04-14 10:20 | -24.01034 | 117.93388 | 33852 ft | 478 kts | 182° |
| 2026-04-14 10:20 | -24.04348 | 117.93694 | 34087 ft | 477 kts | 183° |
| 2026-04-14 10:21 | -24.07587 | 117.93716 | 34283 ft | 467 kts | 192° |
| 2026-04-14 10:21 | -24.10771 | 117.93208 | 34480 ft | 461 kts | 197° |
| 2026-04-14 10:21 | -24.13934 | 117.92597 | 34694 ft | 461 kts | 197° |
| 2026-04-14 10:21 | -24.17095 | 117.91984 | 34895 ft | 462 kts | 197° |
| 2026-04-14 10:22 | -24.20257 | 117.91371 | 35119 ft | 462 kts | 197° |
| 2026-04-14 10:22 | -24.23416 | 117.90762 | 35336 ft | 461 kts | 197° |
| 2026-04-14 10:22 | -24.26579 | 117.90157 | 35547 ft | 461 kts | 197° |
| 2026-04-14 10:22 | -24.29742 | 117.89558 | 35758 ft | 461 kts | 197° |
| 2026-04-14 10:23 | -24.32903 | 117.88960 | 35962 ft | 461 kts | 197° |
| 2026-04-14 10:23 | -24.36020 | 117.88367 | 36170 ft | 461 kts | 197° |
| 2026-04-14 10:23 | -24.39178 | 117.87762 | 36364 ft | 460 kts | 198° |
| 2026-04-14 10:23 | -24.42330 | 117.87156 | 36573 ft | 460 kts | 197° |
| 2026-04-14 10:24 | -24.45488 | 117.86549 | 36756 ft | 461 kts | 197° |
| 2026-04-14 10:24 | -24.48645 | 117.85942 | 36938 ft | 461 kts | 197° |
| 2026-04-14 10:24 | -24.51802 | 117.85336 | 37121 ft | 461 kts | 197° |
| 2026-04-14 10:24 | -24.54958 | 117.84731 | 37298 ft | 460 kts | 197° |
| 2026-04-14 10:25 | -24.58115 | 117.84129 | 37469 ft | 460 kts | 197° |
| 2026-04-14 10:25 | -24.61270 | 117.83527 | 37643 ft | 460 kts | 197° |
| 2026-04-14 10:25 | -24.64381 | 117.82931 | 37802 ft | 460 kts | 197° |
| 2026-04-14 10:25 | -24.67530 | 117.82326 | 37982 ft | 459 kts | 198° |
| 2026-04-14 10:26 | -24.73841 | 117.81116 | 38041 ft | 461 kts | 197° |
| 2026-04-14 10:26 | -24.80158 | 117.79900 | 38045 ft | 461 kts | 197° |
| 2026-04-14 10:27 | -24.86475 | 117.78676 | 38047 ft | 461 kts | 197° |
| 2026-04-14 10:27 | -24.92754 | 117.77465 | 38046 ft | 461 kts | 197° |
| 2026-04-14 10:28 | -24.99075 | 117.76245 | 38054 ft | 462 kts | 197° |
| 2026-04-14 10:28 | -25.05404 | 117.75027 | 38058 ft | 462 kts | 197° |
| 2026-04-14 10:29 | -25.11738 | 117.73796 | 38063 ft | 462 kts | 197° |
| 2026-04-14 10:29 | -25.18032 | 117.72573 | 38066 ft | 462 kts | 197° |
| 2026-04-14 10:30 | -25.24371 | 117.71343 | 38070 ft | 463 kts | 197° |
| 2026-04-14 10:30 | -25.30715 | 117.70113 | 38083 ft | 463 kts | 197° |
| 2026-04-14 10:31 | -25.37053 | 117.68886 | 38075 ft | 462 kts | 197° |
| 2026-04-14 10:31 | -25.43345 | 117.67657 | 38071 ft | 462 kts | 197° |
| 2026-04-14 10:32 | -25.49676 | 117.66421 | 38072 ft | 462 kts | 197° |
| 2026-04-14 10:32 | -25.56010 | 117.65190 | 38072 ft | 462 kts | 197° |
| 2026-04-14 10:33 | -25.62350 | 117.63950 | 38072 ft | 463 kts | 197° |
| 2026-04-14 10:33 | -25.68651 | 117.62716 | 38067 ft | 463 kts | 197° |
| 2026-04-14 10:34 | -25.78171 | 117.60858 | 38062 ft | 463 kts | 197° |
| 2026-04-14 10:35 | -25.84524 | 117.59609 | 38065 ft | 464 kts | 197° |
| 2026-04-14 10:35 | -25.90831 | 117.58383 | 38048 ft | 463 kts | 197° |
| 2026-04-14 10:36 | -25.97175 | 117.57137 | 38054 ft | 463 kts | 197° |
| 2026-04-14 10:36 | -26.03517 | 117.55876 | 38055 ft | 463 kts | 197° |
| 2026-04-14 10:37 | -26.09869 | 117.54621 | 38060 ft | 464 kts | 197° |
| 2026-04-14 10:37 | -26.16187 | 117.53385 | 38079 ft | 464 kts | 197° |
| 2026-04-14 10:38 | -26.22551 | 117.52130 | 38077 ft | 465 kts | 197° |
| 2026-04-14 10:38 | -26.28922 | 117.50871 | 38071 ft | 465 kts | 197° |
| 2026-04-14 10:39 | -26.35290 | 117.49611 | 38069 ft | 465 kts | 197° |
| 2026-04-14 10:39 | -26.41622 | 117.48360 | 38070 ft | 465 kts | 197° |
| 2026-04-14 10:40 | -26.48001 | 117.47101 | 38085 ft | 466 kts | 197° |
| 2026-04-14 10:40 | -26.54388 | 117.45831 | 38079 ft | 466 kts | 197° |
| 2026-04-14 10:41 | -26.60776 | 117.44563 | 38078 ft | 466 kts | 197° |
| 2026-04-14 10:41 | -26.67167 | 117.43296 | 38081 ft | 466 kts | 197° |
| 2026-04-14 10:42 | -26.73514 | 117.42030 | 38094 ft | 467 kts | 197° |
| 2026-04-14 10:42 | -26.79911 | 117.40756 | 38088 ft | 467 kts | 196° |
| 2026-04-14 10:43 | -26.86312 | 117.39482 | 38081 ft | 467 kts | 197° |
| 2026-04-14 10:43 | -26.92713 | 117.38204 | 38079 ft | 467 kts | 197° |
| 2026-04-14 10:44 | -26.99069 | 117.36927 | 38101 ft | 467 kts | 196° |
| 2026-04-14 10:44 | -27.05462 | 117.35648 | 38070 ft | 466 kts | 196° |
| 2026-04-14 10:45 | -27.11852 | 117.34370 | 38063 ft | 467 kts | 196° |
| 2026-04-14 10:45 | -27.18247 | 117.33091 | 38064 ft | 467 kts | 196° |
| 2026-04-14 10:46 | -27.24604 | 117.31813 | 38060 ft | 467 kts | 196° |
| 2026-04-14 10:46 | -27.31003 | 117.30524 | 38077 ft | 467 kts | 196° |
| 2026-04-14 10:47 | -27.37410 | 117.29235 | 38071 ft | 468 kts | 196° |
| 2026-04-14 10:47 | -27.43817 | 117.27946 | 38068 ft | 468 kts | 196° |
| 2026-04-14 10:48 | -27.50225 | 117.26656 | 38068 ft | 468 kts | 196° |
| 2026-04-14 10:48 | -27.56591 | 117.25362 | 38085 ft | 468 kts | 196° |
| 2026-04-14 10:49 | -27.63001 | 117.24065 | 38070 ft | 468 kts | 196° |
| 2026-04-14 10:49 | -27.69414 | 117.22769 | 38067 ft | 468 kts | 196° |
| 2026-04-14 10:50 | -27.75824 | 117.21463 | 38066 ft | 468 kts | 196° |
| 2026-04-14 10:50 | -27.82195 | 117.20171 | 38065 ft | 468 kts | 196° |
| 2026-04-14 10:51 | -27.88608 | 117.18875 | 38065 ft | 468 kts | 196° |
| 2026-04-14 10:51 | -27.95022 | 117.17572 | 38063 ft | 468 kts | 196° |
| 2026-04-14 10:52 | -28.01435 | 117.16257 | 38072 ft | 468 kts | 196° |
| 2026-04-14 10:52 | -28.07843 | 117.14936 | 38068 ft | 468 kts | 196° |
| 2026-04-14 10:53 | -28.14218 | 117.13631 | 38075 ft | 468 kts | 195° |
| 2026-04-14 10:53 | -28.20630 | 117.12321 | 38070 ft | 469 kts | 195° |
| 2026-04-14 10:54 | -28.27050 | 117.11012 | 38068 ft | 469 kts | 195° |
| 2026-04-14 10:54 | -28.33466 | 117.09694 | 38063 ft | 469 kts | 196° |
| 2026-04-14 10:55 | -28.39838 | 117.08376 | 38079 ft | 469 kts | 195° |
| 2026-04-14 10:55 | -28.46254 | 117.07049 | 38074 ft | 469 kts | 195° |
| 2026-04-14 10:56 | -28.52671 | 117.05723 | 38068 ft | 469 kts | 195° |
| 2026-04-14 10:56 | -28.59089 | 117.04398 | 38074 ft | 469 kts | 195° |
| 2026-04-14 10:57 | -28.65466 | 117.03093 | 38100 ft | 469 kts | 195° |
| 2026-04-14 10:57 | -28.71884 | 117.01777 | 38086 ft | 469 kts | 195° |
| 2026-04-14 10:58 | -28.78302 | 117.00449 | 38082 ft | 469 kts | 195° |
| 2026-04-14 10:58 | -28.84720 | 116.99119 | 38078 ft | 469 kts | 195° |
| 2026-04-14 10:59 | -28.91136 | 116.97794 | 38081 ft | 469 kts | 195° |
| 2026-04-14 10:59 | -28.97508 | 116.96472 | 38088 ft | 469 kts | 195° |
| 2026-04-14 11:00 | -29.03928 | 116.95133 | 38081 ft | 469 kts | 195° |
| 2026-04-14 11:00 | -29.10347 | 116.93793 | 38085 ft | 469 kts | 195° |
| 2026-04-14 11:01 | -29.16771 | 116.92468 | 38086 ft | 469 kts | 195° |
| 2026-04-14 11:01 | -29.23152 | 116.91144 | 38098 ft | 469 kts | 195° |
| 2026-04-14 11:02 | -29.29573 | 116.89792 | 38090 ft | 469 kts | 195° |
| 2026-04-14 11:02 | -29.35998 | 116.88439 | 38088 ft | 469 kts | 195° |
| 2026-04-14 11:03 | -29.42423 | 116.87104 | 38087 ft | 470 kts | 195° |
| 2026-04-14 11:03 | -29.48850 | 116.85760 | 38102 ft | 470 kts | 194° |
| 2026-04-14 11:04 | -29.55234 | 116.84417 | 38095 ft | 470 kts | 194° |
| 2026-04-14 11:04 | -29.61665 | 116.83062 | 38092 ft | 470 kts | 194° |
| 2026-04-14 11:05 | -29.68093 | 116.81711 | 38086 ft | 470 kts | 194° |
| 2026-04-14 11:05 | -29.74527 | 116.80361 | 38097 ft | 470 kts | 194° |
| 2026-04-14 11:06 | -29.80916 | 116.79022 | 38091 ft | 470 kts | 194° |
| 2026-04-14 11:06 | -29.87345 | 116.77658 | 38092 ft | 470 kts | 194° |
| 2026-04-14 11:07 | -29.93775 | 116.76287 | 38092 ft | 470 kts | 194° |
| 2026-04-14 11:07 | -30.00208 | 116.74924 | 38091 ft | 470 kts | 194° |
| 2026-04-14 11:08 | -30.06600 | 116.73576 | 38098 ft | 470 kts | 194° |
| 2026-04-14 11:08 | -30.13034 | 116.72217 | 38093 ft | 470 kts | 194° |
| 2026-04-14 11:09 | -30.19463 | 116.70838 | 38094 ft | 470 kts | 194° |
| 2026-04-14 11:09 | -30.25896 | 116.69464 | 38093 ft | 470 kts | 194° |
| 2026-04-14 11:10 | -30.35504 | 116.67422 | 38100 ft | 470 kts | 194° |
| 2026-04-14 11:10 | -30.41934 | 116.66046 | 38099 ft | 470 kts | 194° |
| 2026-04-14 11:11 | -30.48366 | 116.64664 | 38094 ft | 470 kts | 194° |
| 2026-04-14 11:11 | -30.53709 | 116.63518 | 38099 ft | 470 kts | 194° |
| 2026-04-14 11:12 | -30.60929 | 116.61021 | 38101 ft | 465 kts | 202° |
| 2026-04-14 11:12 | -30.67070 | 116.58627 | 38100 ft | 465 kts | 202° |
| 2026-04-14 11:13 | -30.72175 | 116.56636 | 38097 ft | 466 kts | 202° |
| 2026-04-14 11:13 | -30.78317 | 116.54243 | 38101 ft | 466 kts | 202° |
| 2026-04-14 11:14 | -30.81386 | 116.53046 | 37812 ft | 465 kts | 202° |
| 2026-04-14 11:14 | -30.85454 | 116.51460 | 36147 ft | 466 kts | 201° |
| 2026-04-14 11:14 | -30.88532 | 116.50257 | 34945 ft | 467 kts | 200° |
| 2026-04-14 11:14 | -30.90615 | 116.49444 | 34166 ft | 469 kts | 200° |
| 2026-04-14 11:15 | -30.93716 | 116.48232 | 32859 ft | 472 kts | 200° |
| 2026-04-14 11:15 | -30.96798 | 116.47027 | 31608 ft | 475 kts | 200° |
| 2026-04-14 11:15 | -30.99944 | 116.45795 | 30386 ft | 479 kts | 200° |
| 2026-04-14 11:15 | -31.03121 | 116.44548 | 29017 ft | 483 kts | 201° |
| 2026-04-14 11:16 | -31.06313 | 116.43292 | 27661 ft | 486 kts | 201° |
| 2026-04-14 11:16 | -31.09523 | 116.42029 | 26366 ft | 488 kts | 201° |
| 2026-04-14 11:16 | -31.12752 | 116.40762 | 25121 ft | 491 kts | 201° |
| 2026-04-14 11:16 | -31.17056 | 116.39076 | 23516 ft | 493 kts | 201° |
| 2026-04-14 11:17 | -31.19244 | 116.38220 | 22583 ft | 489 kts | 201° |
| 2026-04-14 11:17 | -31.23450 | 116.36573 | 20377 ft | 474 kts | 200° |
| 2026-04-14 11:17 | -31.25511 | 116.35764 | 19126 ft | 469 kts | 200° |
| 2026-04-14 11:17 | -31.28523 | 116.34583 | 17667 ft | 445 kts | 200° |
| 2026-04-14 11:18 | -31.31363 | 116.33466 | 17103 ft | 416 kts | 200° |
| 2026-04-14 11:18 | -31.34019 | 116.32418 | 16675 ft | 390 kts | 200° |
| 2026-04-14 11:18 | -31.36512 | 116.31435 | 16257 ft | 368 kts | 201° |
| 2026-04-14 11:18 | -31.38873 | 116.30505 | 15827 ft | 349 kts | 200° |
| 2026-04-14 11:19 | -31.41119 | 116.29609 | 15425 ft | 334 kts | 202° |
| 2026-04-14 11:19 | -31.43218 | 116.28402 | 15023 ft | 345 kts | 211° |
| 2026-04-14 11:19 | -31.45339 | 116.27031 | 14614 ft | 350 kts | 211° |
| 2026-04-14 11:19 | -31.47444 | 116.25676 | 14219 ft | 350 kts | 211° |
| 2026-04-14 11:20 | -31.49578 | 116.24309 | 13819 ft | 349 kts | 210° |
| 2026-04-14 11:20 | -31.51708 | 116.22949 | 13379 ft | 348 kts | 210° |
| 2026-04-14 11:20 | -31.53827 | 116.21597 | 12711 ft | 346 kts | 210° |
| 2026-04-14 11:20 | -31.55931 | 116.20254 | 11838 ft | 342 kts | 210° |
| 2026-04-14 11:21 | -31.57974 | 116.18948 | 11292 ft | 328 kts | 210° |
| 2026-04-14 11:21 | -31.59956 | 116.17676 | 10621 ft | 322 kts | 210° |
| 2026-04-14 11:21 | -31.61890 | 116.16437 | 10019 ft | 315 kts | 209° |
| 2026-04-14 11:21 | -31.63788 | 116.15220 | 9173 ft | 315 kts | 209° |
| 2026-04-14 11:22 | -31.65707 | 116.13987 | 8338 ft | 314 kts | 209° |
| 2026-04-14 11:22 | -31.67622 | 116.12756 | 7528 ft | 313 kts | 209° |
| 2026-04-14 11:22 | -31.69526 | 116.11535 | 6746 ft | 311 kts | 208° |
| 2026-04-14 11:22 | -31.71412 | 116.10323 | 5932 ft | 308 kts | 209° |
| 2026-04-14 11:23 | -31.73284 | 116.09118 | 5138 ft | 305 kts | 209° |
| 2026-04-14 11:23 | -31.75087 | 116.07832 | 4383 ft | 302 kts | 220° |
| 2026-04-14 11:23 | -31.76435 | 116.06049 | 4101 ft | 282 kts | 233° |
| 2026-04-14 11:23 | -31.77554 | 116.04312 | 3996 ft | 259 kts | 232° |
| 2026-04-14 11:24 | -31.78590 | 116.02718 | 4004 ft | 233 kts | 232° |
| 2026-04-14 11:24 | -31.79546 | 116.01311 | 4026 ft | 207 kts | 224° |
| 2026-04-14 11:24 | -31.80675 | 116.00421 | 4020 ft | 189 kts | 201° |
| 2026-04-14 11:24 | -31.81934 | 116.00015 | 3808 ft | 188 kts | 192° |
| 2026-04-14 11:25 | -31.83221 | 115.99647 | 3114 ft | 190 kts | 192° |
| 2026-04-14 11:25 | -31.84493 | 115.99279 | 2507 ft | 187 kts | 192° |
| 2026-04-14 11:25 | -31.85715 | 115.98924 | 2074 ft | 177 kts | 192° |
| 2026-04-14 11:25 | -31.86914 | 115.98576 | 1763 ft | 175 kts | 192° |
| 2026-04-14 11:26 | -31.88085 | 115.98236 | 1344 ft | 172 kts | 194° |
| 2026-04-14 11:26 | -31.89235 | 115.97901 | 936 ft | 169 kts | 195° |
| 2026-04-14 11:26 | -31.90370 | 115.97571 | 587 ft | 165 kts | 193° |
| 2026-04-14 11:26 | -31.91480 | 115.97248 | 377 ft | 164 kts | 194° |
| 2026-04-14 11:27 | -31.92577 | 115.96930 | 152 ft | 161 kts | 195° |
| 2026-04-14 11:27 | -31.93610 | 115.96628 | 50 ft | 133 kts | 195° |
| 2026-04-14 11:27 | -31.94220 | 115.96449 | 59 ft | 47 kts | 194° |
| 2026-04-14 11:27 | -31.94442 | 115.96437 | 58 ft | 28 kts | 136° |
| 2026-04-14 11:28 | -31.94510 | 115.96662 | 55 ft | 30 kts | 108° |
| 2026-04-14 11:28 | -31.94508 | 115.96719 | 58 ft | 1 kts | 33° |
| 2026-04-14 11:28 | -31.94504 | 115.96714 | 52 ft | 0 kts | 328° |
| 2026-04-14 11:28 | -31.94504 | 115.96710 | 50 ft | 1 kts | 288° |
| 2026-04-14 11:29 | -31.94499 | 115.96659 | 55 ft | 14 kts | 277° |
| 2026-04-14 11:29 | -31.94476 | 115.96503 | 55 ft | 23 kts | 284° |
| 2026-04-14 11:29 | -31.94437 | 115.96320 | 60 ft | 24 kts | 283° |
| 2026-04-14 11:29 | -31.94338 | 115.96188 | 55 ft | 24 kts | 357° |
| 2026-04-14 11:30 | -31.94168 | 115.96227 | 56 ft | 26 kts | 13° |
| 2026-04-14 11:30 | -31.93983 | 115.96251 | 58 ft | 28 kts | 346° |
| 2026-04-14 11:30 | -31.93785 | 115.96194 | 57 ft | 31 kts | 349° |
| 2026-04-14 11:30 | -31.93572 | 115.96201 | 54 ft | 15 kts | 7° |
| 2026-04-14 11:31 | -31.93527 | 115.96178 | 55 ft | 3 kts | 314° |
| 2026-04-14 11:31 | -31.93517 | 115.96156 | 53 ft | 3 kts | 297° |
| 2026-04-14 11:31 | -31.93508 | 115.96135 | 57 ft | 3 kts | 298° |
| 2026-04-14 11:31 | -31.93499 | 115.96117 | 53 ft | 3 kts | 298° |
| 2026-04-14 11:32 | -31.93498 | 115.96114 | 53 ft | 0 kts | 298° |